createdAt,value
2023-04-26T00:00:45.872Z,2.17
2023-04-26T00:02:51.536Z,1.95
2023-04-26T00:05:02.666Z,1.83
2023-04-26T00:07:08.569Z,2.08
2023-04-26T00:09:13.679Z,2.01
2023-04-26T00:11:19.205Z,2.06
2023-04-26T00:13:24.872Z,1.87
2023-04-26T00:15:30.378Z,1.77
2023-04-26T00:17:35.576Z,1.75
2023-04-26T00:19:41.200Z,1.70
2023-04-26T00:21:49.165Z,1.52
2023-04-26T00:23:54.979Z,1.64
2023-04-26T00:26:00.588Z,1.55
2023-04-26T00:28:05.772Z,1.44
2023-04-26T00:30:13.217Z,1.48
2023-04-26T00:32:18.314Z,1.31
2023-04-26T00:34:25.219Z,1.27
2023-04-26T00:36:30.322Z,1.28
2023-04-26T00:38:39.884Z,1.17
2023-04-26T00:40:44.975Z,1.06
2023-04-26T00:42:50.066Z,1.00
2023-04-26T00:44:57.613Z,0.89
2023-04-26T00:47:04.009Z,0.83
2023-04-26T00:49:13.095Z,0.91
2023-04-26T00:51:19.379Z,0.87
2023-04-26T00:53:25.265Z,0.77
2023-04-26T00:55:33.755Z,0.75
2023-04-26T00:57:38.941Z,0.74
2023-04-26T00:59:44.940Z,0.72
2023-04-26T01:01:50.853Z,0.77
2023-04-26T01:03:56.255Z,0.70
2023-04-26T01:06:02.033Z,0.72
2023-04-26T01:08:07.940Z,0.69
2023-04-26T01:10:14.321Z,0.50
2023-04-26T01:12:23.632Z,0.50
2023-04-26T01:14:29.387Z,0.44
2023-04-26T01:16:35.680Z,0.32
2023-04-26T01:18:41.283Z,0.21
2023-04-26T01:20:47.771Z,0.14
2023-04-26T01:22:56.560Z,0.21
2023-04-26T01:25:02.403Z,0.33
2023-04-26T01:27:08.136Z,0.19
2023-04-26T01:29:21.225Z,0.09
2023-04-26T01:31:26.553Z,0.16
2023-04-26T01:33:31.716Z,0.30
2023-04-26T01:35:37.383Z,0.12
2023-04-26T01:37:42.593Z,0.08
2023-04-26T01:39:50.603Z,-0.02
2023-04-26T01:42:01.243Z,0.05
2023-04-26T01:44:10.493Z,0.05
2023-04-26T01:46:15.950Z,-0.12
2023-04-26T01:48:21.093Z,-0.22
2023-04-26T01:50:27.385Z,-0.31
2023-04-26T01:52:32.464Z,-0.38
2023-04-26T01:54:38.258Z,-0.47
2023-04-26T01:56:45.999Z,-0.52
2023-04-26T01:58:51.386Z,-0.40
2023-04-26T02:00:56.682Z,-0.43
2023-04-26T02:03:02.059Z,-0.35
2023-04-26T02:05:09.722Z,-0.35
2023-04-26T02:07:15.710Z,-0.32
2023-04-26T02:09:24.020Z,-0.32
2023-04-26T02:11:30.074Z,-0.41
2023-04-26T02:13:38.958Z,-0.57
2023-04-26T02:15:44.162Z,-0.49
2023-04-26T02:17:49.767Z,-0.56
2023-04-26T02:19:55.031Z,-0.64
2023-04-26T02:22:01.979Z,-0.79
2023-04-26T02:24:08.508Z,-0.82
2023-04-26T02:26:14.511Z,-0.63
2023-04-26T02:28:21.894Z,-0.68
2023-04-26T02:30:29.601Z,-0.71
2023-04-26T02:32:34.767Z,-0.51
2023-04-26T02:34:40.765Z,-0.67
2023-04-26T02:36:46.804Z,-0.68
2023-04-26T02:38:53.429Z,-0.80
2023-04-26T02:41:02.362Z,-0.87
2023-04-26T02:43:08.996Z,-0.86
2023-04-26T02:45:17.255Z,-0.93
2023-04-26T02:47:24.986Z,-1.07
2023-04-26T02:49:30.183Z,-1.04
2023-04-26T02:51:35.580Z,-1.03
2023-04-26T02:53:40.688Z,-1.06
2023-04-26T02:55:46.790Z,-1.08
2023-04-26T02:57:51.884Z,-1.03
2023-04-26T02:59:57.755Z,-1.09
2023-04-26T03:02:03.128Z,-1.12
2023-04-26T03:04:11.424Z,-0.94
2023-04-26T03:06:17.903Z,-0.93
2023-04-26T03:08:23.408Z,-0.93
2023-04-26T03:10:28.609Z,-0.88
2023-04-26T03:12:34.656Z,-0.96
2023-04-26T03:14:40.696Z,-1.10
2023-04-26T03:16:48.622Z,-1.23
2023-04-26T03:18:54.500Z,-1.01
2023-04-26T03:21:02.404Z,-1.10
2023-04-26T03:23:08.619Z,-1.02
2023-04-26T03:25:18.656Z,-0.88
2023-04-26T03:27:24.164Z,-0.96
2023-04-26T03:29:29.328Z,-0.76
2023-04-26T03:31:34.648Z,-0.81
2023-04-26T03:33:41.079Z,-1.01
2023-04-26T03:35:46.896Z,-1.02
2023-04-26T03:37:56.579Z,-0.93
2023-04-26T03:40:03.188Z,-1.01
2023-04-26T03:42:11.761Z,-1.00
2023-04-26T03:44:17.701Z,-0.93
2023-04-26T03:46:23.374Z,-0.96
2023-04-26T03:48:28.982Z,-1.04
2023-04-26T03:50:34.073Z,-1.03
2023-04-26T03:52:39.184Z,-1.17
2023-04-26T03:54:47.583Z,-1.25
2023-04-26T03:56:53.059Z,-1.36
2023-04-26T03:58:58.754Z,-1.33
2023-04-26T04:01:05.075Z,-1.35
2023-04-26T04:03:10.688Z,-1.27
2023-04-26T04:05:16.477Z,-1.15
2023-04-26T04:07:21.901Z,-1.17
2023-04-26T04:09:27.613Z,-1.21
2023-04-26T04:11:35.561Z,-1.22
2023-04-26T04:13:40.640Z,-0.86
2023-04-26T04:15:46.376Z,-1.00
2023-04-26T04:17:52.253Z,-1.09
2023-04-26T04:19:57.512Z,-0.96
2023-04-26T04:22:02.607Z,-0.94
2023-04-26T04:24:08.919Z,-1.02
2023-04-26T04:26:14.881Z,-1.04
2023-04-26T04:28:22.958Z,-1.04
2023-04-26T04:30:30.794Z,-1.15
2023-04-26T04:32:36.456Z,-1.16
2023-04-26T04:34:42.430Z,-1.07
2023-04-26T04:36:47.840Z,-1.04
2023-04-26T04:38:53.883Z,-1.09
2023-04-26T04:41:03.669Z,-1.11
2023-04-26T04:43:09.204Z,-1.15
2023-04-26T04:45:17.845Z,-1.20
2023-04-26T04:47:23.559Z,-1.12
2023-04-26T04:49:30.816Z,-1.00
2023-04-26T04:51:37.070Z,-1.01
2023-04-26T04:53:42.192Z,-0.94
2023-04-26T04:55:49.321Z,-0.86
2023-04-26T04:57:55.367Z,-0.75
2023-04-26T05:00:11.801Z,-0.66
2023-04-26T05:02:26.802Z,-0.61
2023-04-26T05:04:35.083Z,-0.37
2023-04-26T05:06:41.260Z,-0.38
2023-04-26T05:08:46.807Z,-0.29
2023-04-26T05:10:52.352Z,-0.30
2023-04-26T05:12:57.952Z,-0.30
2023-04-26T05:15:03.175Z,-0.20
2023-04-26T05:17:09.420Z,-0.22
2023-04-26T05:19:18.234Z,-0.14
2023-04-26T05:21:26.005Z,-0.05
2023-04-26T05:23:31.252Z,0.02
2023-04-26T05:25:40.609Z,0.16
2023-04-26T05:28:08.226Z,0.17
2023-04-26T05:30:36.957Z,0.29
2023-04-26T05:33:02.319Z,0.34
2023-04-26T05:35:15.786Z,0.37
2023-04-26T05:37:20.880Z,0.51
2023-04-26T05:39:26.059Z,0.57
2023-04-26T05:41:31.169Z,0.59
2023-04-26T05:43:36.436Z,0.64
2023-04-26T05:45:53.487Z,0.78
2023-04-26T05:47:58.748Z,0.83
2023-04-26T05:50:04.975Z,0.96
2023-04-26T05:52:13.475Z,1.05
2023-04-26T05:54:19.738Z,1.12
2023-04-26T05:56:27.846Z,1.24
2023-04-26T05:58:34.044Z,1.33
2023-04-26T06:00:41.706Z,1.49
2023-04-26T06:02:47.289Z,1.56
2023-04-26T06:04:56.216Z,1.74
2023-04-26T06:07:01.563Z,1.85
2023-04-26T06:09:10.024Z,1.96
2023-04-26T06:11:15.179Z,2.05
2023-04-26T06:13:21.446Z,2.17
2023-04-26T06:15:27.894Z,2.32
2023-04-26T06:17:33.896Z,2.40
2023-04-26T06:19:39.228Z,2.56
2023-04-26T06:21:47.161Z,2.70
2023-04-26T06:23:52.512Z,2.87
2023-04-26T06:26:02.191Z,2.98
2023-04-26T06:28:08.328Z,3.07
2023-04-26T06:30:14.338Z,3.21
2023-04-26T06:32:23.563Z,3.35
2023-04-26T06:34:28.794Z,3.50
2023-04-26T06:36:35.173Z,3.63
2023-04-26T06:38:40.452Z,3.77
2023-04-26T06:40:48.254Z,3.96
2023-04-26T06:42:57.943Z,4.18
2023-04-26T06:45:24.521Z,4.38
2023-04-26T06:47:31.578Z,4.49
2023-04-26T06:49:37.769Z,4.60
2023-04-26T06:51:44.676Z,4.77
2023-04-26T06:53:49.919Z,4.97
2023-04-26T06:55:57.630Z,5.12
2023-04-26T06:58:08.043Z,5.21
2023-04-26T07:00:15.723Z,5.49
2023-04-26T07:02:23.709Z,5.71
2023-04-26T07:04:29.159Z,5.76
2023-04-26T07:06:34.803Z,5.75
2023-04-26T07:08:39.952Z,5.90
2023-04-26T07:10:45.883Z,5.97
2023-04-26T07:12:51.891Z,6.18
2023-04-26T07:15:01.508Z,6.50
2023-04-26T07:17:06.862Z,6.60
2023-04-26T07:19:11.988Z,6.66
2023-04-26T07:21:17.138Z,6.65
2023-04-26T07:23:23.199Z,6.74
2023-04-26T07:25:28.368Z,6.95
2023-04-26T07:27:33.926Z,6.98
2023-04-26T07:29:38.997Z,7.27
2023-04-26T07:31:46.655Z,7.43
2023-04-26T07:33:52.498Z,7.49
2023-04-26T07:35:59.765Z,7.54
2023-04-26T07:38:05.246Z,7.48
2023-04-26T07:40:13.735Z,7.58
2023-04-26T07:42:18.933Z,7.66
2023-04-26T07:44:24.019Z,7.82
2023-04-26T07:46:29.098Z,7.99
2023-04-26T07:48:37.023Z,7.98
2023-04-26T07:50:42.540Z,8.01
2023-04-26T07:52:47.650Z,8.23
2023-04-26T07:54:52.744Z,8.54
2023-04-26T07:56:57.923Z,8.63
2023-04-26T07:59:04.043Z,8.50
2023-04-26T08:01:10.192Z,8.56
2023-04-26T08:03:18.161Z,8.68
2023-04-26T08:05:26.460Z,8.64
2023-04-26T08:07:31.748Z,8.91
2023-04-26T08:09:36.859Z,9.14
2023-04-26T08:11:42.211Z,9.38
2023-04-26T08:13:47.495Z,9.65
2023-04-26T08:15:52.651Z,9.91
2023-04-26T08:17:58.184Z,10.44
2023-04-26T08:20:05.141Z,10.60
2023-04-26T08:22:12.859Z,10.44
2023-04-26T08:24:17.955Z,10.14
2023-04-26T08:26:23.070Z,10.10
2023-04-26T08:28:28.221Z,10.12
2023-04-26T08:30:33.474Z,10.33
2023-04-26T08:32:38.736Z,10.47
2023-04-26T08:34:44.029Z,10.70
2023-04-26T08:36:49.139Z,11.23
2023-04-26T08:38:58.200Z,11.46
2023-04-26T08:41:04.560Z,11.71
2023-04-26T08:43:11.811Z,11.68
2023-04-26T08:45:18.961Z,11.46
2023-04-26T08:47:34.583Z,11.28
2023-04-26T08:49:44.595Z,11.36
2023-04-26T08:51:50.480Z,11.27
2023-04-26T08:54:02.742Z,10.55
2023-04-26T08:56:11.346Z,10.44
2023-04-26T08:58:17.174Z,10.16
2023-04-26T09:00:23.515Z,10.67
2023-04-26T09:02:28.720Z,10.93
2023-04-26T09:04:34.622Z,10.82
2023-04-26T09:06:40.494Z,10.78
2023-04-26T09:08:46.943Z,11.12
2023-04-26T09:10:54.951Z,11.50
2023-04-26T09:13:01.952Z,12.37
2023-04-26T09:15:09.574Z,11.78
2023-04-26T09:17:29.239Z,12.53
2023-04-26T09:19:39.328Z,12.23
2023-04-26T09:21:47.410Z,11.92
2023-04-26T09:24:04.602Z,11.52
2023-04-26T09:26:23.449Z,11.22
2023-04-26T09:28:28.551Z,11.32
2023-04-26T09:30:41.325Z,11.15
2023-04-26T09:32:56.733Z,10.90
2023-04-26T09:35:01.851Z,10.98
2023-04-26T09:37:07.003Z,10.78
2023-04-26T09:39:13.581Z,10.85
2023-04-26T09:41:21.563Z,11.08
2023-04-26T09:43:26.926Z,11.30
2023-04-26T09:45:34.279Z,11.46
2023-04-26T09:47:40.067Z,12.15
2023-04-26T09:49:51.569Z,12.12
2023-04-26T09:52:07.833Z,12.66
2023-04-26T09:54:12.960Z,12.61
2023-04-26T09:56:22.961Z,12.42
2023-04-26T09:58:28.117Z,12.31
2023-04-26T10:00:34.352Z,12.20
2023-04-26T10:02:40.622Z,12.06
2023-04-26T10:04:49.238Z,12.38
2023-04-26T10:06:55.223Z,12.44
2023-04-26T10:09:00.666Z,12.94
2023-04-26T10:11:07.746Z,12.12
2023-04-26T10:13:16.649Z,12.51
2023-04-26T10:15:22.113Z,12.85
2023-04-26T10:17:27.214Z,12.95
2023-04-26T10:19:33.461Z,13.40
2023-04-26T10:21:42.719Z,13.41
2023-04-26T10:23:48.221Z,13.42
2023-04-26T10:25:53.319Z,13.01
2023-04-26T10:27:58.737Z,13.41
2023-04-26T10:30:14.998Z,13.89
2023-04-26T10:32:20.402Z,13.58
2023-04-26T10:34:26.780Z,13.51
2023-04-26T10:36:32.365Z,13.50
2023-04-26T10:38:39.854Z,13.24
2023-04-26T10:40:46.291Z,13.15
2023-04-26T10:42:51.385Z,13.43
2023-04-26T10:44:57.436Z,13.55
2023-04-26T10:47:05.274Z,13.16
2023-04-26T10:49:25.757Z,12.43
2023-04-26T10:51:32.033Z,12.12
2023-04-26T10:54:01.860Z,12.13
2023-04-26T10:56:07.158Z,11.91
2023-04-26T10:58:30.536Z,11.99
2023-04-26T11:00:39.083Z,12.42
2023-04-26T11:02:58.822Z,12.76
2023-04-26T11:05:07.519Z,12.66
2023-04-26T11:07:12.767Z,12.50
2023-04-26T11:09:40.031Z,12.92
2023-04-26T11:11:56.193Z,13.03
2023-04-26T11:14:05.838Z,13.03
2023-04-26T11:16:13.002Z,13.16
2023-04-26T11:18:23.337Z,12.71
2023-04-26T11:20:33.891Z,12.63
2023-04-26T11:22:43.365Z,12.45
2023-04-26T11:24:49.003Z,12.79
2023-04-26T11:26:58.428Z,12.81
2023-04-26T11:29:03.853Z,13.01
2023-04-26T11:31:10.071Z,13.03
2023-04-26T11:33:24.426Z,12.52
2023-04-26T11:35:31.112Z,12.67
2023-04-26T11:37:37.658Z,12.45
2023-04-26T11:39:43.079Z,12.71
2023-04-26T11:41:48.168Z,12.82
2023-04-26T11:43:53.678Z,13.09
2023-04-26T11:46:03.092Z,13.56
2023-04-26T11:48:11.067Z,13.47
2023-04-26T11:50:20.361Z,13.77
2023-04-26T11:52:25.659Z,13.64
2023-04-26T11:54:32.572Z,13.55
2023-04-26T11:56:37.713Z,13.29
2023-04-26T11:58:43.386Z,13.14
2023-04-26T12:01:02.485Z,13.54
2023-04-26T12:03:11.173Z,13.59
2023-04-26T12:05:30.736Z,13.49
2023-04-26T12:07:38.857Z,13.67
2023-04-26T12:09:45.660Z,13.51
2023-04-26T12:11:56.317Z,13.36
2023-04-26T12:14:02.691Z,13.71
2023-04-26T12:16:22.406Z,13.64
2023-04-26T12:18:35.242Z,13.47
2023-04-26T12:20:46.743Z,13.48
2023-04-26T12:23:07.715Z,13.31
2023-04-26T12:25:14.127Z,13.05
2023-04-26T12:27:24.631Z,13.17
2023-04-26T12:29:32.171Z,13.41
2023-04-26T12:31:37.560Z,13.67
2023-04-26T12:33:42.735Z,13.64
2023-04-26T12:35:51.004Z,13.04
2023-04-26T12:37:57.212Z,13.15
2023-04-26T12:40:02.338Z,12.89
2023-04-26T12:42:07.931Z,12.80
2023-04-26T12:44:14.484Z,12.77
2023-04-26T12:46:19.836Z,13.05
2023-04-26T12:48:25.016Z,13.74
2023-04-26T12:50:30.610Z,14.24
2023-04-26T12:52:38.642Z,14.13
2023-04-26T12:54:44.955Z,14.60
2023-04-26T12:56:50.032Z,14.54
2023-04-26T12:58:55.298Z,14.31
2023-04-26T13:01:00.728Z,14.21
2023-04-26T13:03:06.180Z,14.73
2023-04-26T13:05:12.631Z,14.77
2023-04-26T13:07:18.038Z,15.04
2023-04-26T13:09:25.835Z,15.65
2023-04-26T13:11:31.216Z,16.36
2023-04-26T13:13:43.671Z,16.59
2023-04-26T13:15:49.869Z,16.29
2023-04-26T13:17:55.034Z,16.32
2023-04-26T13:20:00.149Z,16.04
2023-04-26T13:22:08.470Z,15.59
2023-04-26T13:24:13.572Z,16.71
2023-04-26T13:26:21.309Z,16.86
2023-04-26T13:28:26.387Z,16.15
2023-04-26T13:30:31.805Z,16.22
2023-04-26T13:32:36.989Z,15.97
2023-04-26T13:34:42.493Z,15.47
2023-04-26T13:36:47.721Z,14.95
2023-04-26T13:38:52.796Z,14.74
2023-04-26T13:40:58.188Z,15.24
2023-04-26T13:43:05.882Z,15.71
2023-04-26T13:45:17.006Z,15.59
2023-04-26T13:47:23.600Z,15.22
2023-04-26T13:49:28.962Z,15.34
2023-04-26T13:51:34.970Z,15.37
2023-04-26T13:53:40.096Z,16.41
2023-04-26T13:55:45.819Z,16.36
2023-04-26T13:57:50.941Z,15.72
2023-04-26T13:59:58.632Z,15.61
2023-04-26T14:02:04.050Z,15.42
2023-04-26T14:04:10.510Z,16.70
2023-04-26T14:06:16.763Z,17.50
2023-04-26T14:08:22.191Z,17.50
2023-04-26T14:10:27.313Z,17.06
2023-04-26T14:12:32.776Z,16.86
2023-04-26T14:14:38.143Z,17.09
2023-04-26T14:16:46.113Z,17.69
2023-04-26T14:18:51.231Z,18.28
2023-04-26T14:20:56.590Z,18.83
2023-04-26T14:23:01.666Z,19.35
2023-04-26T14:25:08.193Z,20.05
2023-04-26T14:27:13.535Z,18.90
2023-04-26T14:29:18.591Z,18.42
2023-04-26T14:31:26.489Z,16.76
2023-04-26T14:33:34.148Z,16.81
2023-04-26T14:35:39.350Z,17.04
2023-04-26T14:37:44.854Z,17.95
2023-04-26T14:39:49.920Z,18.27
2023-04-26T14:41:56.029Z,19.00
2023-04-26T14:44:01.225Z,19.55
2023-04-26T14:46:08.085Z,19.57
2023-04-26T14:48:13.650Z,18.24
2023-04-26T14:50:21.663Z,17.89
2023-04-26T14:52:29.110Z,17.08
2023-04-26T14:54:34.229Z,17.79
2023-04-26T14:56:40.540Z,18.65
2023-04-26T14:58:45.632Z,19.72
2023-04-26T15:00:50.751Z,20.38
2023-04-26T15:02:56.116Z,20.50
2023-04-26T15:05:01.419Z,21.48
2023-04-26T15:07:15.304Z,22.50
2023-04-26T15:09:30.578Z,20.64
2023-04-26T15:11:37.277Z,20.09
2023-04-26T15:13:42.989Z,19.55
2023-04-26T15:15:48.412Z,19.54
2023-04-26T15:17:53.667Z,18.99
2023-04-26T15:19:58.874Z,17.50
2023-04-26T15:22:04.336Z,17.40
2023-04-26T15:24:12.742Z,17.37
2023-04-26T15:26:17.918Z,16.85
2023-04-26T15:28:23.014Z,16.86
2023-04-26T15:30:30.441Z,17.17
2023-04-26T15:32:35.560Z,17.65
2023-04-26T15:34:45.397Z,18.15
2023-04-26T15:36:50.576Z,17.68
2023-04-26T15:38:55.728Z,18.05
2023-04-26T15:41:03.442Z,18.17
2023-04-26T15:43:08.518Z,18.65
2023-04-26T15:45:14.601Z,18.01
2023-04-26T15:47:19.743Z,18.27
2023-04-26T15:49:26.655Z,18.70
2023-04-26T15:51:31.987Z,19.43
2023-04-26T15:53:43.177Z,19.72
2023-04-26T15:55:48.820Z,19.71
2023-04-26T15:57:56.824Z,20.41
2023-04-26T16:00:01.954Z,19.82
2023-04-26T16:02:09.916Z,18.93
2023-04-26T16:04:15.124Z,19.20
2023-04-26T16:06:20.631Z,18.64
2023-04-26T16:08:39.535Z,18.64
2023-04-26T16:10:45.255Z,19.84
2023-04-26T16:12:51.028Z,20.44
2023-04-26T16:15:00.583Z,19.37
2023-04-26T16:17:06.378Z,19.62
2023-04-26T16:19:12.512Z,19.86
2023-04-26T16:21:18.184Z,20.01
2023-04-26T16:23:23.704Z,20.69
2023-04-26T16:25:28.739Z,20.70
2023-04-26T16:27:34.293Z,20.96
2023-04-26T16:29:39.789Z,21.76
2023-04-26T16:31:47.468Z,21.11
2023-04-26T16:33:52.804Z,20.44
2023-04-26T16:35:58.191Z,20.70
2023-04-26T16:38:03.248Z,18.79
2023-04-26T16:40:11.450Z,17.98
2023-04-26T16:42:16.646Z,18.01
2023-04-26T16:44:21.707Z,18.17
2023-04-26T16:46:27.152Z,18.52
2023-04-26T16:48:36.159Z,17.28
2023-04-26T16:50:41.677Z,16.34
2023-04-26T16:52:47.637Z,15.44
2023-04-26T16:54:55.682Z,14.80
2023-04-26T16:57:00.829Z,14.48
2023-04-26T16:59:05.910Z,14.31
2023-04-26T17:01:11.038Z,13.81
2023-04-26T17:03:16.572Z,13.24
2023-04-26T17:07:31.835Z,12.76
2023-04-26T17:09:38.543Z,12.60
2023-04-26T17:11:44.996Z,13.17
2023-04-26T17:13:50.028Z,12.80
2023-04-26T17:15:58.427Z,12.70
2023-04-26T17:18:04.647Z,12.44
2023-04-26T17:20:13.633Z,12.26
2023-04-26T17:22:22.090Z,12.34
2023-04-26T17:24:27.961Z,12.31
2023-04-26T17:26:33.040Z,12.32
2023-04-26T17:28:39.551Z,12.42
2023-04-26T17:30:45.357Z,12.92
2023-04-26T17:32:50.659Z,12.68
2023-04-26T17:34:55.711Z,12.94
2023-04-26T17:37:01.154Z,12.43
2023-04-26T17:39:09.454Z,12.30
2023-04-26T17:41:15.217Z,12.44
2023-04-26T17:43:20.517Z,12.22
2023-04-26T17:45:26.121Z,11.98
2023-04-26T17:47:31.960Z,11.71
2023-04-26T17:49:37.004Z,11.56
2023-04-26T17:51:42.017Z,11.68
2023-04-26T17:53:47.113Z,11.37
2023-04-26T17:55:55.600Z,11.05
2023-04-26T17:58:00.970Z,10.89
2023-04-26T18:00:07.203Z,10.83
2023-04-26T18:02:12.415Z,10.65
2023-04-26T18:04:18.931Z,10.45
2023-04-26T18:06:24.294Z,10.15
2023-04-26T18:08:30.256Z,9.95
2023-04-26T18:10:35.421Z,9.79
2023-04-26T18:12:43.846Z,9.61
2023-04-26T18:14:48.921Z,9.41
2023-04-26T18:16:54.101Z,9.28
2023-04-26T18:18:59.588Z,9.10
2023-04-26T18:21:04.622Z,9.04
2023-04-26T18:23:10.057Z,8.85
2023-04-26T18:25:15.657Z,8.57
2023-04-26T18:27:21.030Z,8.29
2023-04-26T18:29:28.640Z,8.09
2023-04-26T18:31:35.636Z,7.89
2023-04-26T18:33:40.740Z,7.76
2023-04-26T18:35:46.162Z,7.58
2023-04-26T18:37:51.374Z,7.49
2023-04-26T18:39:59.312Z,7.42
2023-04-26T18:42:04.667Z,7.39
2023-04-26T18:44:13.321Z,7.24
2023-04-26T18:46:21.604Z,7.13
2023-04-26T18:48:26.689Z,6.99
2023-04-26T18:50:31.751Z,6.91
2023-04-26T18:52:40.166Z,6.82
2023-04-26T18:54:45.835Z,6.67
2023-04-26T18:56:50.921Z,6.48
2023-04-26T18:58:56.755Z,6.38
2023-04-26T19:01:01.886Z,6.21
2023-04-26T19:03:09.683Z,6.08
2023-04-26T19:05:16.007Z,5.88
2023-04-26T19:07:21.630Z,5.74
2023-04-26T19:09:26.848Z,5.69
2023-04-26T19:11:32.053Z,5.57
2023-04-26T19:13:37.325Z,5.45
2023-04-26T19:15:42.397Z,5.35
2023-04-26T19:17:47.494Z,5.28
2023-04-26T19:19:55.587Z,5.22
2023-04-26T19:22:01.260Z,5.27
2023-04-26T19:24:07.359Z,5.25
2023-04-26T19:26:14.977Z,5.29
2023-04-26T19:28:20.393Z,5.30
2023-04-26T19:30:26.256Z,5.26
2023-04-26T19:32:31.309Z,5.23
2023-04-26T19:34:39.018Z,5.21
2023-04-26T19:36:46.632Z,5.20
2023-04-26T19:38:52.917Z,5.19
2023-04-26T19:40:59.145Z,5.27
2023-04-26T19:43:04.150Z,5.23
2023-04-26T19:45:11.167Z,5.33
2023-04-26T19:47:17.112Z,5.31
2023-04-26T19:49:22.225Z,5.25
2023-04-26T19:51:27.680Z,5.21
2023-04-26T19:53:35.373Z,5.19
2023-04-26T19:55:42.462Z,5.15
2023-04-26T19:57:47.891Z,5.15
2023-04-26T19:59:53.412Z,5.18
2023-04-26T20:01:59.393Z,5.15
2023-04-26T20:04:05.564Z,5.17
2023-04-26T20:06:11.844Z,5.12
2023-04-26T20:08:17.071Z,5.13
2023-04-26T20:10:25.006Z,5.19
2023-04-26T20:12:30.460Z,5.11
2023-04-26T20:14:36.690Z,5.07
2023-04-26T20:16:41.773Z,5.12
2023-04-26T20:18:47.633Z,5.13
2023-04-26T20:20:53.081Z,5.17
2023-04-26T20:22:58.205Z,5.13
2023-04-26T20:25:04.300Z,5.17
2023-04-26T20:27:11.919Z,5.24
2023-04-26T20:29:17.873Z,5.15
2023-04-26T20:31:23.039Z,5.07
2023-04-26T20:33:28.209Z,5.05
2023-04-26T20:35:33.268Z,5.02
2023-04-26T20:37:38.771Z,5.05
2023-04-26T20:39:44.480Z,5.03
2023-04-26T20:41:49.740Z,5.13
2023-04-26T20:43:57.411Z,5.17
2023-04-26T20:46:02.476Z,5.15
2023-04-26T20:48:08.600Z,5.09
2023-04-26T20:50:14.665Z,5.18
2023-04-26T20:52:19.927Z,5.11
2023-04-26T20:54:25.098Z,5.11
2023-04-26T20:56:30.142Z,5.04
2023-04-26T20:58:35.235Z,4.99
2023-04-26T21:00:43.173Z,4.98
2023-04-26T21:02:48.936Z,5.02
2023-04-26T21:04:54.677Z,4.96
2023-04-26T21:06:59.845Z,4.98
2023-04-26T21:09:05.546Z,4.94
2023-04-26T21:11:10.682Z,4.98
2023-04-26T21:13:15.933Z,5.06
2023-04-26T21:15:21.978Z,4.98
2023-04-26T21:17:29.705Z,4.91
2023-04-26T21:19:35.567Z,4.88
2023-04-26T21:21:41.065Z,4.91
2023-04-26T21:23:46.459Z,4.87
2023-04-26T21:25:52.073Z,4.90
2023-04-26T21:27:58.380Z,4.90
2023-04-26T21:30:04.623Z,4.83
2023-04-26T21:32:10.528Z,4.85
2023-04-26T21:34:18.153Z,4.84
2023-04-26T21:36:23.516Z,4.89
2023-04-26T21:38:28.692Z,4.86
2023-04-26T21:40:34.476Z,4.84
2023-04-26T21:42:39.534Z,4.96
2023-04-26T21:44:44.579Z,4.92
2023-04-26T21:46:49.689Z,4.78
2023-04-26T21:48:54.882Z,4.71
2023-04-26T21:51:02.997Z,4.71
2023-04-26T21:53:08.143Z,4.73
2023-04-26T21:55:13.900Z,4.67
2023-04-26T21:57:20.359Z,4.62
2023-04-26T21:59:25.355Z,4.61
2023-04-26T22:01:30.414Z,4.69
2023-04-26T22:03:36.005Z,4.61
2023-04-26T22:05:41.327Z,4.56
2023-04-26T22:07:49.108Z,4.56
2023-04-26T22:09:54.112Z,4.47
2023-04-26T22:11:59.153Z,4.45
2023-04-26T22:14:04.353Z,4.57
2023-04-26T22:16:10.088Z,4.49
2023-04-26T22:18:15.180Z,4.58
2023-04-26T22:20:21.521Z,4.53
2023-04-26T22:22:26.584Z,4.53
2023-04-26T22:24:34.209Z,4.50
2023-04-26T22:26:39.228Z,4.43
2023-04-26T22:28:44.254Z,4.43
2023-04-26T22:30:49.556Z,4.45
2023-04-26T22:32:55.748Z,4.52
2023-04-26T22:35:00.857Z,4.43
2023-04-26T22:37:19.727Z,4.37
2023-04-26T22:39:26.585Z,4.34
2023-04-26T22:41:35.033Z,4.30
2023-04-26T22:43:41.636Z,4.28
2023-04-26T22:45:46.837Z,4.26
2023-04-26T22:47:52.222Z,4.32
2023-04-26T22:49:57.719Z,4.35
2023-04-26T22:52:11.567Z,4.28
2023-04-26T22:54:22.572Z,4.25
2023-04-26T22:56:27.687Z,4.29
2023-04-26T22:58:35.848Z,4.27
2023-04-26T23:00:40.878Z,4.29
2023-04-26T23:02:46.100Z,4.26
2023-04-26T23:04:52.045Z,4.20
2023-04-26T23:06:57.418Z,4.12
2023-04-26T23:09:02.703Z,4.27
2023-04-26T23:11:11.177Z,4.28
2023-04-26T23:13:17.236Z,4.26
2023-04-26T23:15:25.633Z,4.36
2023-04-26T23:17:32.195Z,4.27
2023-04-26T23:19:38.320Z,4.34
2023-04-26T23:21:43.435Z,4.24
2023-04-26T23:23:48.491Z,4.38
2023-04-26T23:25:53.981Z,4.30
2023-04-26T23:27:59.017Z,4.39
2023-04-26T23:30:04.805Z,4.31
2023-04-26T23:32:12.614Z,4.20
2023-04-26T23:34:17.867Z,4.15
2023-04-26T23:36:22.889Z,4.12
2023-04-26T23:38:27.978Z,4.08
2023-04-26T23:40:33.263Z,4.03
2023-04-26T23:42:38.649Z,4.02
2023-04-26T23:44:43.728Z,4.01
2023-04-26T23:46:48.825Z,3.98
2023-04-26T23:48:56.767Z,3.97
2023-04-26T23:51:02.743Z,3.92
2023-04-26T23:53:08.057Z,3.89
2023-04-26T23:55:14.016Z,3.87
2023-04-26T23:57:19.055Z,3.87
2023-04-26T23:59:24.072Z,3.86
